PWSweather.com
Personal Weather Stations
Station Observations
KCTCOLEB1
Sandy Brook, Colebrook, CT 06021

Sandy BrookColebrook, CT 06021

Lat: 42.0018, Lon: -73.0825

Elevation: 935

Station Type: Davis Vantage Pro2 + Solar + UV

Latest ConditionsUpdated 2:00:01 PM EST Sunday, Jan 26, 2020
Currently Today's Max Today's Min Today's Average
Temperature 38.9°F3.8°C 41.0°F5.0°C 32.2°F0.1°C 35.1°F1.7°C
Dew Point 34.4°F1.3°C 36.6°F2.6°C 31.4°F-0.3°C 33.9°F1.1°C
Winds 2.3 mph N3.7 kmh N 4.6 mph -7.4 kmh - - 0.6 mph 1.0 kmh
Wind Gusts 3.5 mph5.6 kmh 8.1 mph13.0 kmh - -
Humidity 84% 98% 79% 95%
Pressure 29.68 in1005.1 mb 29.76 in1007.8 mb 29.68 in1005.1 mb -
Precipitation - 0.14 in3.6 mm - -
Hour Temp Dew Point Humidity Winds Wind Gusts Pressure Precip Precip Rate Daily Precip Total
02:00 PM 38.9°F3.8°C 34.4°F1.3°C 84% 2.3 mph N3.7 kmh N 3.5 mph5.6 kmh 29.68 in1005.1 mb - 0.00 in0.0 mm 0.14 in3.6 mm
01:50 PM 38.6°F3.7°C 34.8°F1.6°C 86% 1.2 mph N1.9 kmh N 2.3 mph3.7 kmh 29.68 in1005.1 mb - 0.00 in0.0 mm 0.14 in3.6 mm
01:40 PM 38.7°F3.7°C 34.9°F1.6°C 86% Calm Calm 1.2 mph1.9 kmh 29.68 in1005.1 mb - 0.00 in0.0 mm 0.14 in3.6 mm
01:30 PM 38.7°F3.7°C 34.9°F1.6°C 86% Calm Calm 1.2 mph1.9 kmh 29.68 in1005.1 mb - 0.00 in0.0 mm 0.14 in3.6 mm
01:20 PM 38.7°F3.7°C 35.2°F1.8°C 87% 1.2 mph NNW1.9 kmh NNW 1.2 mph1.9 kmh 29.69 in1005.4 mb - 0.00 in0.0 mm 0.14 in3.6 mm
01:10 PM 38.7°F3.7°C 34.9°F1.6°C 86% 2.3 mph NNW3.7 kmh NNW 2.3 mph3.7 kmh 29.69 in1005.4 mb - 0.00 in0.0 mm 0.14 in3.6 mm
01:00 PM 39.0°F3.9°C 35.2°F1.8°C 86% 1.2 mph NNW1.9 kmh NNW 3.5 mph5.6 kmh 29.70 in1005.8 mb - 0.00 in0.0 mm 0.14 in3.6 mm
12:50 PM 39.4°F4.1°C 35.6°F2.0°C 86% 1.2 mph ENE1.9 kmh ENE 2.3 mph3.7 kmh 29.70 in1005.8 mb - 0.00 in0.0 mm 0.14 in3.6 mm
12:40 PM 39.8°F4.3°C 34.4°F1.3°C 81% 1.2 mph ENE1.9 kmh ENE 2.3 mph3.7 kmh 29.70 in1005.8 mb - 0.00 in0.0 mm 0.14 in3.6 mm
12:30 PM 40.9°F4.9°C 34.9°F1.6°C 79% 3.5 mph NNE5.6 kmh NNE 3.5 mph5.6 kmh 29.70 in1005.8 mb - 0.00 in0.0 mm 0.14 in3.6 mm
12:20 PM 41.0°F5.0°C 36.2°F2.3°C 83% 4.6 mph NE7.4 kmh NE 8.1 mph13.0 kmh 29.70 in1005.8 mb - 0.00 in0.0 mm 0.14 in3.6 mm
12:10 PM 39.9°F4.4°C 36.1°F2.3°C 86% 2.3 mph NNE3.7 kmh NNE 3.5 mph5.6 kmh 29.70 in1005.8 mb - 0.00 in0.0 mm 0.14 in3.6 mm
12:00 PM 39.6°F4.2°C 36.1°F2.3°C 87% 2.3 mph NE3.7 kmh NE 2.3 mph3.7 kmh 29.71 in1006.1 mb - 0.00 in0.0 mm 0.14 in3.6 mm
11:50 AM 39.4°F4.1°C 36.4°F2.4°C 89% 3.5 mph N5.6 kmh N 4.6 mph7.4 kmh 29.71 in1006.1 mb - 0.00 in0.0 mm 0.14 in3.6 mm
11:40 AM 38.8°F3.8°C 36.1°F2.3°C 90% 3.5 mph N5.6 kmh N 3.5 mph5.6 kmh 29.72 in1006.4 mb - 0.00 in0.0 mm 0.14 in3.6 mm
11:30 AM 38.3°F3.5°C 36.2°F2.3°C 92% 2.3 mph NNE3.7 kmh NNE 4.6 mph7.4 kmh 29.72 in1006.4 mb - 0.00 in0.0 mm 0.14 in3.6 mm
11:20 AM 37.8°F3.2°C 36.2°F2.3°C 94% 2.3 mph NE3.7 kmh NE 3.5 mph5.6 kmh 29.73 in1006.8 mb - 0.00 in0.0 mm 0.14 in3.6 mm
11:10 AM 37.6°F3.1°C 36.6°F2.6°C 96% 2.3 mph NE3.7 kmh NE 3.5 mph5.6 kmh 29.73 in1006.8 mb - 0.00 in0.0 mm 0.14 in3.6 mm
11:00 AM 37.3°F2.9°C 36.5°F2.5°C 97% 1.2 mph SSE1.9 kmh SSE 2.3 mph3.7 kmh 29.73 in1006.8 mb - 0.00 in0.0 mm 0.14 in3.6 mm
10:50 AM 37.1°F2.8°C 36.6°F2.6°C 98% 1.2 mph SE1.9 kmh SE 2.3 mph3.7 kmh 29.73 in1006.8 mb - 0.00 in0.0 mm 0.14 in3.6 mm
10:40 AM 36.8°F2.7°C 36.3°F2.4°C 98% 1.2 mph NNW1.9 kmh NNW 1.2 mph1.9 kmh 29.74 in1007.1 mb - 0.00 in0.0 mm 0.14 in3.6 mm
10:30 AM 36.4°F2.4°C 35.9°F2.2°C 98% 1.2 mph SSW1.9 kmh SSW 2.3 mph3.7 kmh 29.74 in1007.1 mb - 0.00 in0.0 mm 0.14 in3.6 mm
10:20 AM 36.2°F2.3°C 35.7°F2.1°C 98% 2.3 mph SSE3.7 kmh SSE 2.3 mph3.7 kmh 29.74 in1007.1 mb - 0.00 in0.0 mm 0.14 in3.6 mm
10:10 AM 36.0°F2.2°C 35.5°F1.9°C 98% Calm Calm -- 29.74 in1007.1 mb - 0.00 in0.0 mm 0.14 in3.6 mm
10:00 AM 35.7°F2.1°C 35.2°F1.8°C 98% Calm Calm -- 29.74 in1007.1 mb - 0.00 in0.0 mm 0.14 in3.6 mm
09:50 AM 35.5°F1.9°C 35.0°F1.7°C 98% Calm Calm -- 29.75 in1007.5 mb - 0.00 in0.0 mm 0.14 in3.6 mm
09:40 AM 35.2°F1.8°C 34.7°F1.5°C 98% Calm Calm -- 29.74 in1007.1 mb - 0.00 in0.0 mm 0.14 in3.6 mm
09:30 AM 34.8°F1.6°C 34.3°F1.3°C 98% Calm Calm -- 29.74 in1007.1 mb - 0.00 in0.0 mm 0.14 in3.6 mm
09:20 AM 33.9°F1.1°C 33.4°F0.8°C 98% Calm Calm 2.3 mph3.7 kmh 29.74 in1007.1 mb - 0.00 in0.0 mm 0.14 in3.6 mm
09:10 AM 33.3°F0.7°C 32.8°F0.4°C 98% 1.2 mph SE1.9 kmh SE 3.5 mph5.6 kmh 29.74 in1007.1 mb - 0.00 in0.0 mm 0.14 in3.6 mm
09:00 AM 32.8°F0.4°C 32.3°F0.2°C 98% Calm Calm -- 29.74 in1007.1 mb - 0.00 in0.0 mm 0.14 in3.6 mm
08:50 AM 32.5°F0.3°C 31.7°F-0.2°C 97% Calm Calm -- 29.75 in1007.5 mb - 0.00 in0.0 mm 0.14 in3.6 mm
08:40 AM 32.3°F0.2°C 31.5°F-0.3°C 97% Calm Calm 1.2 mph1.9 kmh 29.75 in1007.5 mb - 0.00 in0.0 mm 0.14 in3.6 mm
08:30 AM 32.2°F0.1°C 31.4°F-0.3°C 97% Calm Calm -- 29.75 in1007.5 mb - 0.00 in0.0 mm 0.14 in3.6 mm
08:20 AM 32.3°F0.2°C 31.5°F-0.3°C 97% Calm Calm -- 29.75 in1007.5 mb - 0.00 in0.0 mm 0.14 in3.6 mm
08:10 AM 32.5°F0.3°C 31.7°F-0.2°C 97% Calm Calm -- 29.75 in1007.5 mb - 0.00 in0.0 mm 0.14 in3.6 mm
08:00 AM 32.8°F0.4°C 32.0°F0.0°C 97% Calm Calm -- 29.75 in1007.5 mb - 0.00 in0.0 mm 0.14 in3.6 mm
07:50 AM 33.0°F0.6°C 32.2°F0.1°C 97% Calm Calm -- 29.75 in1007.5 mb - 0.00 in0.0 mm 0.14 in3.6 mm
07:40 AM 33.2°F0.7°C 32.7°F0.4°C 98% Calm Calm -- 29.75 in1007.5 mb - 0.00 in0.0 mm 0.14 in3.6 mm
07:30 AM 33.3°F0.7°C 32.8°F0.4°C 98% Calm Calm -- 29.75 in1007.5 mb - 0.00 in0.0 mm 0.14 in3.6 mm
07:20 AM 33.3°F0.7°C 32.8°F0.4°C 98% Calm Calm -- 29.75 in1007.5 mb - 0.00 in0.0 mm 0.14 in3.6 mm
07:10 AM 33.2°F0.7°C 32.7°F0.4°C 98% Calm Calm -- 29.75 in1007.5 mb - 0.00 in0.0 mm 0.14 in3.6 mm
07:00 AM 33.2°F0.7°C 32.7°F0.4°C 98% Calm Calm -- 29.75 in1007.5 mb - 0.01 in0.3 mm 0.14 in3.6 mm
06:50 AM 33.2°F0.7°C 32.4°F0.2°C 97% 1.2 mph NE1.9 kmh NE 2.3 mph3.7 kmh 29.76 in1007.8 mb - 0.00 in0.0 mm 0.13 in3.3 mm
06:40 AM 33.2°F0.7°C 32.4°F0.2°C 97% Calm Calm -- 29.76 in1007.8 mb - 0.00 in0.0 mm 0.13 in3.3 mm
06:30 AM 33.2°F0.7°C 32.4°F0.2°C 97% Calm Calm -- 29.76 in1007.8 mb - 0.00 in0.0 mm 0.13 in3.3 mm
06:20 AM 33.3°F0.7°C 32.5°F0.3°C 97% Calm Calm -- 29.75 in1007.5 mb - 0.00 in0.0 mm 0.13 in3.3 mm
06:10 AM 33.3°F0.7°C 32.5°F0.3°C 97% Calm Calm -- 29.75 in1007.5 mb - 0.00 in0.0 mm 0.13 in3.3 mm
06:00 AM 33.4°F0.8°C 32.6°F0.3°C 97% Calm Calm -- 29.74 in1007.1 mb - 0.00 in0.0 mm 0.13 in3.3 mm
05:50 AM 33.4°F0.8°C 32.6°F0.3°C 97% Calm Calm -- 29.74 in1007.1 mb - 0.01 in0.3 mm 0.13 in3.3 mm
05:40 AM 33.5°F0.8°C 33.0°F0.6°C 98% Calm Calm -- 29.74 in1007.1 mb - 0.00 in0.0 mm 0.12 in3.0 mm
05:30 AM 33.6°F0.9°C 32.8°F0.4°C 97% Calm Calm -- 29.74 in1007.1 mb - 0.00 in0.0 mm 0.12 in3.0 mm
05:20 AM 33.7°F0.9°C 32.9°F0.5°C 97% Calm Calm -- 29.74 in1007.1 mb - 0.00 in0.0 mm 0.12 in3.0 mm
05:10 AM 33.8°F1.0°C 33.1°F0.6°C 97% Calm Calm -- 29.73 in1006.8 mb - 0.00 in0.0 mm 0.12 in3.0 mm
05:00 AM 34.0°F1.1°C 33.2°F0.7°C 97% Calm Calm -- 29.73 in1006.8 mb - 0.01 in0.3 mm 0.12 in3.0 mm
04:50 AM 34.2°F1.2°C 33.7°F0.9°C 98% Calm Calm -- 29.73 in1006.8 mb - 0.01 in0.3 mm 0.12 in3.0 mm
04:40 AM 34.4°F1.3°C 33.9°F1.1°C 98% Calm Calm 1.2 mph1.9 kmh 29.74 in1007.1 mb - 0.00 in0.0 mm 0.11 in2.8 mm
04:30 AM 34.6°F1.4°C 33.8°F1.0°C 97% Calm Calm 1.2 mph1.9 kmh 29.73 in1006.8 mb - 0.00 in0.0 mm 0.11 in2.8 mm
04:20 AM 34.7°F1.5°C 33.9°F1.1°C 97% Calm Calm -- 29.73 in1006.8 mb - 0.01 in0.3 mm 0.11 in2.8 mm
04:10 AM 34.8°F1.6°C 34.3°F1.3°C 98% Calm Calm -- 29.72 in1006.4 mb - 0.00 in0.0 mm 0.10 in2.5 mm
04:00 AM 34.9°F1.6°C 34.4°F1.3°C 98% Calm Calm 1.2 mph1.9 kmh 29.72 in1006.4 mb - 0.00 in0.0 mm 0.10 in2.5 mm
03:50 AM 35.1°F1.7°C 34.6°F1.4°C 98% Calm Calm -- 29.72 in1006.4 mb - 0.01 in0.3 mm 0.10 in2.5 mm
03:40 AM 35.2°F1.8°C 34.7°F1.5°C 98% 2.3 mph NE3.7 kmh NE 3.5 mph5.6 kmh 29.72 in1006.4 mb - 0.00 in0.0 mm 0.09 in2.3 mm
03:30 AM 35.1°F1.7°C 34.6°F1.4°C 98% 2.3 mph WNW3.7 kmh WNW 3.5 mph5.6 kmh 29.72 in1006.4 mb - 0.00 in0.0 mm 0.09 in2.3 mm
03:20 AM 35.0°F1.7°C 34.5°F1.4°C 98% Calm Calm 1.2 mph1.9 kmh 29.72 in1006.4 mb - 0.01 in0.3 mm 0.09 in2.3 mm
03:10 AM 34.8°F1.6°C 34.3°F1.3°C 98% Calm Calm -- 29.72 in1006.4 mb - 0.00 in0.0 mm 0.08 in2.0 mm
03:00 AM 34.7°F1.5°C 34.2°F1.2°C 98% Calm Calm -- 29.72 in1006.4 mb - 0.00 in0.0 mm 0.08 in2.0 mm
02:50 AM 34.4°F1.3°C 33.9°F1.1°C 98% 1.2 mph NNE1.9 kmh NNE 2.3 mph3.7 kmh 29.72 in1006.4 mb - 0.01 in0.3 mm 0.08 in2.0 mm
02:40 AM 34.1°F1.2°C 33.3°F0.7°C 97% 1.2 mph NNE1.9 kmh NNE 1.2 mph1.9 kmh 29.72 in1006.4 mb - 0.00 in0.0 mm 0.07 in1.8 mm
02:30 AM 33.8°F1.0°C 33.3°F0.7°C 98% Calm Calm -- 29.72 in1006.4 mb - 0.00 in0.0 mm 0.07 in1.8 mm
02:20 AM 33.5°F0.8°C 32.7°F0.4°C 97% Calm Calm -- 29.72 in1006.4 mb - 0.01 in0.3 mm 0.07 in1.8 mm
02:10 AM 33.5°F0.8°C 32.7°F0.4°C 97% Calm Calm -- 29.72 in1006.4 mb - 0.00 in0.0 mm 0.06 in1.5 mm
02:00 AM 33.5°F0.8°C 32.7°F0.4°C 97% Calm Calm -- 29.72 in1006.4 mb - 0.00 in0.0 mm 0.06 in1.5 mm
01:50 AM 33.5°F0.8°C 32.7°F0.4°C 97% Calm Calm -- 29.73 in1006.8 mb - 0.01 in0.3 mm 0.06 in1.5 mm
01:40 AM 33.6°F0.9°C 32.8°F0.4°C 97% Calm Calm -- 29.72 in1006.4 mb - 0.00 in0.0 mm 0.05 in1.3 mm
01:30 AM 33.8°F1.0°C 33.0°F0.6°C 97% Calm Calm -- 29.72 in1006.4 mb - 0.01 in0.3 mm 0.05 in1.3 mm
01:20 AM 33.9°F1.1°C 33.1°F0.6°C 97% Calm Calm -- 29.72 in1006.4 mb - 0.00 in0.0 mm 0.04 in1.0 mm
01:10 AM 33.9°F1.1°C 33.1°F0.6°C 97% Calm Calm -- 29.72 in1006.4 mb - 0.01 in0.3 mm 0.04 in1.0 mm
01:00 AM 33.9°F1.1°C 33.1°F0.6°C 97% Calm Calm -- 29.72 in1006.4 mb - 0.00 in0.0 mm 0.03 in0.8 mm
12:50 AM 33.9°F1.1°C 33.1°F0.6°C 97% Calm Calm -- 29.72 in1006.4 mb - 0.01 in0.3 mm 0.03 in0.8 mm
12:40 AM 33.9°F1.1°C 33.1°F0.6°C 97% Calm Calm -- 29.72 in1006.4 mb - 0.00 in0.0 mm 0.02 in0.5 mm
12:30 AM 33.9°F1.1°C 33.1°F0.6°C 97% Calm Calm -- 29.72 in1006.4 mb - 0.01 in0.3 mm 0.02 in0.5 mm
12:20 AM 33.9°F1.1°C 33.1°F0.6°C 97% Calm Calm -- 29.72 in1006.4 mb - 0.01 in0.3 mm 0.01 in0.3 mm
12:10 AM 33.9°F1.1°C 33.1°F0.6°C 97% Calm Calm -- 29.71 in1006.1 mb - 0.01 in0.3 mm 0.01 in0.3 mm
12:00 AM 33.9°F1.1°C 33.1°F0.6°C 97% Calm Calm -- 29.71 in1006.1 mb - 0.01 in0.3 mm 0.01 in0.3 mm